sensor_id;sensor_type;location;lat;lon;timestamp;P1;durP1;ratioP1;P2;durP2;ratioP2
18623;SDS011;9441;51.420;7.036;2023-02-01T00:00:33;25.57;;;9.67;;
18623;SDS011;9441;51.420;7.036;2023-02-01T00:01:35;33.80;;;9.50;;
18623;SDS011;9441;51.420;7.036;2023-02-01T00:02:37;28.27;;;9.20;;
18623;SDS011;9441;51.420;7.036;2023-02-01T00:03:40;35.43;;;9.33;;
18623;SDS011;9441;51.420;7.036;2023-02-01T00:04:43;20.53;;;7.80;;
18623;SDS011;9441;51.420;7.036;2023-02-01T00:05:53;29.60;;;8.27;;
18623;SDS011;9441;51.420;7.036;2023-02-01T00:06:56;31.23;;;8.70;;
18623;SDS011;9441;51.420;7.036;2023-02-01T00:07:57;29.30;;;8.10;;
18623;SDS011;9441;51.420;7.036;2023-02-01T00:09:00;33.47;;;8.30;;
18623;SDS011;9441;51.420;7.036;2023-02-01T00:10:01;32.17;;;8.17;;
18623;SDS011;9441;51.420;7.036;2023-02-01T00:11:04;25.37;;;7.30;;
18623;SDS011;9441;51.420;7.036;2023-02-01T00:12:06;35.23;;;7.87;;
18623;SDS011;9441;51.420;7.036;2023-02-01T00:13:08;25.17;;;6.77;;
18623;SDS011;9441;51.420;7.036;2023-02-01T00:14:10;27.07;;;6.67;;
18623;SDS011;9441;51.420;7.036;2023-02-01T00:15:12;21.93;;;6.03;;
18623;SDS011;9441;51.420;7.036;2023-02-01T00:16:15;26.53;;;7.30;;
18623;SDS011;9441;51.420;7.036;2023-02-01T00:17:18;28.40;;;6.40;;
18623;SDS011;9441;51.420;7.036;2023-02-01T00:18:19;24.93;;;6.87;;
18623;SDS011;9441;51.420;7.036;2023-02-01T00:19:21;22.87;;;6.17;;
18623;SDS011;9441;51.420;7.036;2023-02-01T00:20:22;22.17;;;6.13;;
18623;SDS011;9441;51.420;7.036;2023-02-01T00:21:26;32.97;;;6.70;;
18623;SDS011;9441;51.420;7.036;2023-02-01T00:22:28;27.63;;;6.53;;
18623;SDS011;9441;51.420;7.036;2023-02-01T00:23:31;28.37;;;6.10;;
18623;SDS011;9441;51.420;7.036;2023-02-01T00:24:33;27.67;;;6.10;;
18623;SDS011;9441;51.420;7.036;2023-02-01T00:25:35;20.77;;;5.77;;
18623;SDS011;9441;51.420;7.036;2023-02-01T00:26:37;21.60;;;5.90;;
18623;SDS011;9441;51.420;7.036;2023-02-01T00:27:40;24.07;;;5.90;;
18623;SDS011;9441;51.420;7.036;2023-02-01T00:28:41;22.50;;;5.90;;
18623;SDS011;9441;51.420;7.036;2023-02-01T00:29:44;23.47;;;5.77;;
18623;SDS011;9441;51.420;7.036;2023-02-01T00:30:45;23.23;;;5.43;;
18623;SDS011;9441;51.420;7.036;2023-02-01T00:31:49;16.83;;;5.43;;
18623;SDS011;9441;51.420;7.036;2023-02-01T00:32:51;29.70;;;5.70;;
18623;SDS011;9441;51.420;7.036;2023-02-01T00:33:53;23.83;;;5.83;;
18623;SDS011;9441;51.420;7.036;2023-02-01T00:34:54;35.00;;;6.30;;
18623;SDS011;9441;51.420;7.036;2023-02-01T00:35:57;26.87;;;5.67;;
18623;SDS011;9441;51.420;7.036;2023-02-01T00:37:00;20.23;;;5.83;;
18623;SDS011;9441;51.420;7.036;2023-02-01T00:38:02;23.33;;;5.03;;
18623;SDS011;9441;51.420;7.036;2023-02-01T00:39:03;25.57;;;4.97;;
18623;SDS011;9441;51.420;7.036;2023-02-01T00:40:06;26.80;;;5.13;;
18623;SDS011;9441;51.420;7.036;2023-02-01T00:41:10;22.13;;;5.30;;
18623;SDS011;9441;51.420;7.036;2023-02-01T00:42:12;20.70;;;5.43;;
18623;SDS011;9441;51.420;7.036;2023-02-01T00:43:15;21.90;;;5.10;;
18623;SDS011;9441;51.420;7.036;2023-02-01T00:44:16;21.63;;;5.23;;
18623;SDS011;9441;51.420;7.036;2023-02-01T00:45:19;23.37;;;5.17;;
18623;SDS011;9441;51.420;7.036;2023-02-01T00:46:20;22.23;;;5.00;;
18623;SDS011;9441;51.420;7.036;2023-02-01T00:47:22;32.67;;;5.37;;
18623;SDS011;9441;51.420;7.036;2023-02-01T00:48:24;22.47;;;5.30;;
18623;SDS011;9441;51.420;7.036;2023-02-01T00:49:26;33.97;;;5.60;;
18623;SDS011;9441;51.420;7.036;2023-02-01T00:50:28;21.57;;;5.50;;
18623;SDS011;9441;51.420;7.036;2023-02-01T00:51:30;21.30;;;5.43;;
18623;SDS011;9441;51.420;7.036;2023-02-01T00:52:33;22.77;;;5.67;;
18623;SDS011;9441;51.420;7.036;2023-02-01T00:53:36;25.13;;;6.00;;
18623;SDS011;9441;51.420;7.036;2023-02-01T00:54:37;20.97;;;5.40;;
18623;SDS011;9441;51.420;7.036;2023-02-01T00:55:40;24.73;;;5.50;;
18623;SDS011;9441;51.420;7.036;2023-02-01T00:56:41;25.97;;;5.50;;
18623;SDS011;9441;51.420;7.036;2023-02-01T00:57:44;27.33;;;5.43;;
18623;SDS011;9441;51.420;7.036;2023-02-01T00:58:45;32.73;;;6.20;;
18623;SDS011;9441;51.420;7.036;2023-02-01T00:59:47;27.50;;;5.93;;
18623;SDS011;9441;51.420;7.036;2023-02-01T01:00:49;34.07;;;6.20;;
18623;SDS011;9441;51.420;7.036;2023-02-01T01:01:51;28.93;;;6.30;;
18623;SDS011;9441;51.420;7.036;2023-02-01T01:02:52;33.50;;;6.13;;
18623;SDS011;9441;51.420;7.036;2023-02-01T01:03:55;29.43;;;5.90;;
18623;SDS011;9441;51.420;7.036;2023-02-01T01:04:57;29.43;;;6.30;;
18623;SDS011;9441;51.420;7.036;2023-02-01T01:05:59;22.63;;;5.90;;
18623;SDS011;9441;51.420;7.036;2023-02-01T01:07:02;26.13;;;5.97;;
18623;SDS011;9441;51.420;7.036;2023-02-01T01:08:06;26.63;;;6.10;;
18623;SDS011;9441;51.420;7.036;2023-02-01T01:09:07;23.53;;;6.60;;
18623;SDS011;9441;51.420;7.036;2023-02-01T01:10:10;21.50;;;6.53;;
18623;SDS011;9441;51.420;7.036;2023-02-01T01:11:13;25.27;;;6.60;;
18623;SDS011;9441;51.420;7.036;2023-02-01T01:12:15;22.90;;;6.67;;
18623;SDS011;9441;51.420;7.036;2023-02-01T01:13:17;35.33;;;6.80;;
18623;SDS011;9441;51.420;7.036;2023-02-01T01:14:19;25.63;;;7.77;;
18623;SDS011;9441;51.420;7.036;2023-02-01T01:15:20;22.83;;;6.63;;
18623;SDS011;9441;51.420;7.036;2023-02-01T01:16:24;21.50;;;6.87;;
18623;SDS011;9441;51.420;7.036;2023-02-01T01:17:26;31.70;;;9.23;;
18623;SDS011;9441;51.420;7.036;2023-02-01T01:18:28;26.03;;;6.83;;
18623;SDS011;9441;51.420;7.036;2023-02-01T01:19:29;29.77;;;6.87;;
18623;SDS011;9441;51.420;7.036;2023-02-01T01:20:33;24.87;;;7.47;;
18623;SDS011;9441;51.420;7.036;2023-02-01T01:21:35;26.80;;;7.43;;
18623;SDS011;9441;51.420;7.036;2023-02-01T01:22:37;29.33;;;7.30;;
18623;SDS011;9441;51.420;7.036;2023-02-01T01:23:40;25.23;;;6.97;;
18623;SDS011;9441;51.420;7.036;2023-02-01T01:24:42;25.30;;;7.27;;
18623;SDS011;9441;51.420;7.036;2023-02-01T01:25:44;23.17;;;7.07;;
18623;SDS011;9441;51.420;7.036;2023-02-01T01:26:46;20.30;;;7.30;;
18623;SDS011;9441;51.420;7.036;2023-02-01T01:27:48;31.60;;;7.73;;
18623;SDS011;9441;51.420;7.036;2023-02-01T01:28:50;18.47;;;7.33;;
18623;SDS011;9441;51.420;7.036;2023-02-01T01:29:52;20.20;;;7.43;;
18623;SDS011;9441;51.420;7.036;2023-02-01T01:30:54;22.07;;;7.10;;
18623;SDS011;9441;51.420;7.036;2023-02-01T01:31:55;24.87;;;7.53;;
18623;SDS011;9441;51.420;7.036;2023-02-01T01:32:58;21.23;;;7.67;;
18623;SDS011;9441;51.420;7.036;2023-02-01T01:33:59;29.70;;;8.30;;
18623;SDS011;9441;51.420;7.036;2023-02-01T01:35:02;25.10;;;8.00;;
18623;SDS011;9441;51.420;7.036;2023-02-01T01:36:04;26.03;;;7.47;;
18623;SDS011;9441;51.420;7.036;2023-02-01T01:37:06;38.83;;;7.93;;
18623;SDS011;9441;51.420;7.036;2023-02-01T01:38:09;24.17;;;7.50;;
18623;SDS011;9441;51.420;7.036;2023-02-01T01:39:13;29.47;;;8.00;;
18623;SDS011;9441;51.420;7.036;2023-02-01T01:40:15;28.03;;;7.50;;
18623;SDS011;9441;51.420;7.036;2023-02-01T01:41:17;28.40;;;7.60;;
18623;SDS011;9441;51.420;7.036;2023-02-01T01:42:20;25.17;;;7.57;;
18623;SDS011;9441;51.420;7.036;2023-02-01T01:43:22;24.73;;;8.03;;
18623;SDS011;9441;51.420;7.036;2023-02-01T01:45:47;32.93;;;7.63;;
18623;SDS011;9441;51.420;7.036;2023-02-01T01:46:49;21.67;;;7.27;;
18623;SDS011;9441;51.420;7.036;2023-02-01T01:47:51;29.43;;;8.43;;
18623;SDS011;9441;51.420;7.036;2023-02-01T01:48:57;24.70;;;7.87;;
18623;SDS011;9441;51.420;7.036;2023-02-01T01:50:00;29.30;;;7.50;;
18623;SDS011;9441;51.420;7.036;2023-02-01T01:51:04;22.93;;;7.03;;
18623;SDS011;9441;51.420;7.036;2023-02-01T01:52:08;29.20;;;7.70;;
18623;SDS011;9441;51.420;7.036;2023-02-01T01:53:12;28.90;;;7.67;;
18623;SDS011;9441;51.420;7.036;2023-02-01T01:54:16;19.00;;;7.27;;
18623;SDS011;9441;51.420;7.036;2023-02-01T01:55:20;27.70;;;7.43;;
18623;SDS011;9441;51.420;7.036;2023-02-01T01:56:24;20.03;;;7.57;;
18623;SDS011;9441;51.420;7.036;2023-02-01T01:57:27;23.70;;;7.30;;
18623;SDS011;9441;51.420;7.036;2023-02-01T01:58:32;24.93;;;7.60;;
18623;SDS011;9441;51.420;7.036;2023-02-01T01:59:35;25.03;;;7.23;;
18623;SDS011;9441;51.420;7.036;2023-02-01T02:00:37;27.37;;;7.47;;
18623;SDS011;9441;51.420;7.036;2023-02-01T02:01:40;29.53;;;7.47;;
18623;SDS011;9441;51.420;7.036;2023-02-01T02:02:44;26.53;;;7.43;;
18623;SDS011;9441;51.420;7.036;2023-02-01T02:03:57;33.97;;;7.47;;
18623;SDS011;9441;51.420;7.036;2023-02-01T02:05:02;21.83;;;6.90;;
18623;SDS011;9441;51.420;7.036;2023-02-01T02:06:05;26.27;;;6.87;;
18623;SDS011;9441;51.420;7.036;2023-02-01T02:07:09;29.97;;;7.23;;
18623;SDS011;9441;51.420;7.036;2023-02-01T02:08:12;32.53;;;7.50;;
18623;SDS011;9441;51.420;7.036;2023-02-01T02:09:16;23.13;;;6.30;;
18623;SDS011;9441;51.420;7.036;2023-02-01T02:10:18;27.67;;;6.93;;
18623;SDS011;9441;51.420;7.036;2023-02-01T02:11:20;32.87;;;7.00;;
18623;SDS011;9441;51.420;7.036;2023-02-01T02:12:22;30.03;;;6.57;;
18623;SDS011;9441;51.420;7.036;2023-02-01T02:13:24;22.43;;;6.13;;
18623;SDS011;9441;51.420;7.036;2023-02-01T02:14:26;25.20;;;6.97;;
18623;SDS011;9441;51.420;7.036;2023-02-01T02:15:29;25.27;;;6.70;;
18623;SDS011;9441;51.420;7.036;2023-02-01T02:16:38;23.97;;;6.63;;
18623;SDS011;9441;51.420;7.036;2023-02-01T02:17:43;32.57;;;6.60;;
18623;SDS011;9441;51.420;7.036;2023-02-01T02:18:54;25.50;;;6.03;;
18623;SDS011;9441;51.420;7.036;2023-02-01T02:21:34;19.87;;;5.60;;
18623;SDS011;9441;51.420;7.036;2023-02-01T02:22:46;26.77;;;5.77;;
18623;SDS011;9441;51.420;7.036;2023-02-01T02:24:15;27.07;;;5.33;;
18623;SDS011;9441;51.420;7.036;2023-02-01T02:25:34;29.77;;;5.80;;
18623;SDS011;9441;51.420;7.036;2023-02-01T02:27:58;20.73;;;5.50;;
18623;SDS011;9441;51.420;7.036;2023-02-01T02:30:27;26.70;;;5.67;;
18623;SDS011;9441;51.420;7.036;2023-02-01T02:31:46;25.83;;;5.93;;
18623;SDS011;9441;51.420;7.036;2023-02-01T02:34:14;20.10;;;5.10;;
18623;SDS011;9441;51.420;7.036;2023-02-01T02:35:17;20.83;;;5.40;;
18623;SDS011;9441;51.420;7.036;2023-02-01T02:36:25;22.93;;;5.20;;
18623;SDS011;9441;51.420;7.036;2023-02-01T02:37:38;25.47;;;4.63;;
18623;SDS011;9441;51.420;7.036;2023-02-01T02:38:45;26.40;;;5.33;;
18623;SDS011;9441;51.420;7.036;2023-02-01T02:39:50;25.07;;;5.10;;
18623;SDS011;9441;51.420;7.036;2023-02-01T02:40:57;18.83;;;4.77;;
18623;SDS011;9441;51.420;7.036;2023-02-01T02:42:05;25.03;;;5.30;;
18623;SDS011;9441;51.420;7.036;2023-02-01T02:43:28;23.83;;;5.00;;
18623;SDS011;9441;51.420;7.036;2023-02-01T02:44:53;27.07;;;5.53;;
18623;SDS011;9441;51.420;7.036;2023-02-01T02:46:15;21.27;;;4.47;;
18623;SDS011;9441;51.420;7.036;2023-02-01T02:47:39;12.80;;;3.83;;
18623;SDS011;9441;51.420;7.036;2023-02-01T02:48:45;26.33;;;5.87;;
18623;SDS011;9441;51.420;7.036;2023-02-01T02:49:51;25.83;;;4.70;;
18623;SDS011;9441;51.420;7.036;2023-02-01T02:51:09;23.47;;;4.20;;
18623;SDS011;9441;51.420;7.036;2023-02-01T02:52:31;20.13;;;4.60;;
18623;SDS011;9441;51.420;7.036;2023-02-01T02:53:56;16.43;;;4.80;;
18623;SDS011;9441;51.420;7.036;2023-02-01T02:55:17;19.73;;;4.63;;
18623;SDS011;9441;51.420;7.036;2023-02-01T02:56:21;18.27;;;4.20;;
18623;SDS011;9441;51.420;7.036;2023-02-01T02:57:41;20.53;;;4.40;;
18623;SDS011;9441;51.420;7.036;2023-02-01T02:59:02;14.30;;;4.23;;
18623;SDS011;9441;51.420;7.036;2023-02-01T03:00:24;22.33;;;4.67;;
18623;SDS011;9441;51.420;7.036;2023-02-01T03:01:46;29.50;;;4.33;;
18623;SDS011;9441;51.420;7.036;2023-02-01T03:03:06;18.20;;;4.20;;
18623;SDS011;9441;51.420;7.036;2023-02-01T03:04:27;17.37;;;4.00;;
18623;SDS011;9441;51.420;7.036;2023-02-01T03:05:33;21.90;;;4.47;;
18623;SDS011;9441;51.420;7.036;2023-02-01T03:06:36;23.50;;;4.30;;
18623;SDS011;9441;51.420;7.036;2023-02-01T03:07:55;25.40;;;4.37;;
18623;SDS011;9441;51.420;7.036;2023-02-01T03:08:58;23.27;;;4.70;;
18623;SDS011;9441;51.420;7.036;2023-02-01T03:10:03;28.43;;;4.90;;
18623;SDS011;9441;51.420;7.036;2023-02-01T03:11:07;16.13;;;3.67;;
18623;SDS011;9441;51.420;7.036;2023-02-01T03:12:10;22.23;;;4.37;;
18623;SDS011;9441;51.420;7.036;2023-02-01T03:13:33;27.17;;;4.60;;
18623;SDS011;9441;51.420;7.036;2023-02-01T03:14:37;22.57;;;4.07;;
18623;SDS011;9441;51.420;7.036;2023-02-01T03:15:43;16.67;;;3.90;;
18623;SDS011;9441;51.420;7.036;2023-02-01T03:16:49;27.77;;;4.33;;
18623;SDS011;9441;51.420;7.036;2023-02-01T03:17:52;19.40;;;4.60;;
18623;SDS011;9441;51.420;7.036;2023-02-01T03:18:59;21.17;;;3.93;;
18623;SDS011;9441;51.420;7.036;2023-02-01T03:20:02;30.80;;;4.27;;
18623;SDS011;9441;51.420;7.036;2023-02-01T03:21:08;22.77;;;4.13;;
18623;SDS011;9441;51.420;7.036;2023-02-01T03:22:12;21.00;;;3.90;;
18623;SDS011;9441;51.420;7.036;2023-02-01T03:23:16;26.03;;;4.73;;
18623;SDS011;9441;51.420;7.036;2023-02-01T03:24:22;24.63;;;4.07;;
18623;SDS011;9441;51.420;7.036;2023-02-01T03:25:33;23.27;;;4.30;;
18623;SDS011;9441;51.420;7.036;2023-02-01T03:26:39;24.13;;;4.33;;
18623;SDS011;9441;51.420;7.036;2023-02-01T03:27:45;21.83;;;3.90;;
18623;SDS011;9441;51.420;7.036;2023-02-01T03:28:51;18.83;;;4.23;;
18623;SDS011;9441;51.420;7.036;2023-02-01T03:29:58;16.80;;;3.70;;
18623;SDS011;9441;51.420;7.036;2023-02-01T03:31:02;29.33;;;4.47;;
18623;SDS011;9441;51.420;7.036;2023-02-01T03:32:05;23.73;;;4.00;;
18623;SDS011;9441;51.420;7.036;2023-02-01T03:33:07;26.97;;;4.93;;
18623;SDS011;9441;51.420;7.036;2023-02-01T03:34:14;16.10;;;4.17;;
18623;SDS011;9441;51.420;7.036;2023-02-01T03:35:16;28.37;;;4.47;;
18623;SDS011;9441;51.420;7.036;2023-02-01T03:36:24;21.87;;;4.30;;
18623;SDS011;9441;51.420;7.036;2023-02-01T03:37:29;30.67;;;4.57;;
18623;SDS011;9441;51.420;7.036;2023-02-01T03:38:32;27.83;;;4.73;;
18623;SDS011;9441;51.420;7.036;2023-02-01T03:39:39;20.23;;;4.00;;
18623;SDS011;9441;51.420;7.036;2023-02-01T03:40:42;23.77;;;4.23;;
18623;SDS011;9441;51.420;7.036;2023-02-01T03:41:48;21.47;;;4.20;;
18623;SDS011;9441;51.420;7.036;2023-02-01T03:42:51;21.83;;;4.63;;
18623;SDS011;9441;51.420;7.036;2023-02-01T03:44:01;19.60;;;4.23;;
18623;SDS011;9441;51.420;7.036;2023-02-01T03:45:06;25.23;;;4.63;;
18623;SDS011;9441;51.420;7.036;2023-02-01T03:46:09;23.50;;;4.27;;
18623;SDS011;9441;51.420;7.036;2023-02-01T03:47:14;18.23;;;4.23;;
18623;SDS011;9441;51.420;7.036;2023-02-01T03:48:20;19.33;;;4.80;;
18623;SDS011;9441;51.420;7.036;2023-02-01T03:49:24;15.70;;;4.27;;
18623;SDS011;9441;51.420;7.036;2023-02-01T03:50:28;23.37;;;4.40;;
18623;SDS011;9441;51.420;7.036;2023-02-01T03:51:32;21.90;;;4.53;;
18623;SDS011;9441;51.420;7.036;2023-02-01T03:52:37;22.63;;;4.40;;
18623;SDS011;9441;51.420;7.036;2023-02-01T03:53:41;28.77;;;4.90;;
18623;SDS011;9441;51.420;7.036;2023-02-01T03:54:46;20.10;;;4.10;;
18623;SDS011;9441;51.420;7.036;2023-02-01T03:55:48;22.87;;;4.27;;
18623;SDS011;9441;51.420;7.036;2023-02-01T03:56:52;23.37;;;4.40;;
18623;SDS011;9441;51.420;7.036;2023-02-01T03:57:56;18.63;;;4.27;;
18623;SDS011;9441;51.420;7.036;2023-02-01T03:59:00;21.93;;;4.67;;
18623;SDS011;9441;51.420;7.036;2023-02-01T04:00:08;25.93;;;4.90;;
18623;SDS011;9441;51.420;7.036;2023-02-01T04:01:14;21.27;;;4.27;;
18623;SDS011;9441;51.420;7.036;2023-02-01T04:02:16;20.80;;;4.90;;
18623;SDS011;9441;51.420;7.036;2023-02-01T04:03:18;22.67;;;4.57;;
18623;SDS011;9441;51.420;7.036;2023-02-01T04:04:21;29.37;;;4.63;;
18623;SDS011;9441;51.420;7.036;2023-02-01T04:05:27;21.17;;;4.33;;
18623;SDS011;9441;51.420;7.036;2023-02-01T04:06:33;22.87;;;4.87;;
18623;SDS011;9441;51.420;7.036;2023-02-01T04:07:37;22.10;;;4.40;;
18623;SDS011;9441;51.420;7.036;2023-02-01T04:08:39;21.50;;;4.43;;
18623;SDS011;9441;51.420;7.036;2023-02-01T04:09:41;25.00;;;4.47;;
18623;SDS011;9441;51.420;7.036;2023-02-01T04:10:42;28.43;;;4.67;;
18623;SDS011;9441;51.420;7.036;2023-02-01T04:11:45;32.00;;;4.70;;
18623;SDS011;9441;51.420;7.036;2023-02-01T04:12:46;23.20;;;4.50;;
18623;SDS011;9441;51.420;7.036;2023-02-01T04:13:48;23.03;;;4.67;;
18623;SDS011;9441;51.420;7.036;2023-02-01T04:14:50;15.97;;;4.77;;
18623;SDS011;9441;51.420;7.036;2023-02-01T04:15:52;23.30;;;4.50;;
18623;SDS011;9441;51.420;7.036;2023-02-01T04:16:53;25.93;;;4.60;;
18623;SDS011;9441;51.420;7.036;2023-02-01T04:17:56;25.70;;;4.60;;
18623;SDS011;9441;51.420;7.036;2023-02-01T04:18:57;22.90;;;5.00;;
18623;SDS011;9441;51.420;7.036;2023-02-01T04:19:59;23.73;;;5.40;;
18623;SDS011;9441;51.420;7.036;2023-02-01T04:21:01;26.97;;;5.03;;
18623;SDS011;9441;51.420;7.036;2023-02-01T04:22:05;22.93;;;4.90;;
18623;SDS011;9441;51.420;7.036;2023-02-01T04:23:07;24.43;;;5.00;;
18623;SDS011;9441;51.420;7.036;2023-02-01T04:24:09;27.97;;;4.90;;
18623;SDS011;9441;51.420;7.036;2023-02-01T04:25:10;22.10;;;4.80;;
18623;SDS011;9441;51.420;7.036;2023-02-01T04:26:13;25.00;;;4.80;;
18623;SDS011;9441;51.420;7.036;2023-02-01T04:27:16;22.37;;;4.77;;
18623;SDS011;9441;51.420;7.036;2023-02-01T04:28:19;29.03;;;4.67;;
18623;SDS011;9441;51.420;7.036;2023-02-01T04:29:20;27.43;;;4.63;;
18623;SDS011;9441;51.420;7.036;2023-02-01T04:30:23;29.57;;;4.97;;
18623;SDS011;9441;51.420;7.036;2023-02-01T04:31:24;21.07;;;5.03;;
18623;SDS011;9441;51.420;7.036;2023-02-01T04:32:27;25.47;;;4.50;;
18623;SDS011;9441;51.420;7.036;2023-02-01T04:33:28;21.97;;;4.87;;
18623;SDS011;9441;51.420;7.036;2023-02-01T04:34:32;22.53;;;4.40;;
18623;SDS011;9441;51.420;7.036;2023-02-01T04:35:33;25.10;;;4.70;;
18623;SDS011;9441;51.420;7.036;2023-02-01T04:36:35;28.53;;;4.87;;
18623;SDS011;9441;51.420;7.036;2023-02-01T04:37:39;30.93;;;5.23;;
18623;SDS011;9441;51.420;7.036;2023-02-01T04:38:41;24.97;;;5.53;;
18623;SDS011;9441;51.420;7.036;2023-02-01T04:39:43;18.63;;;4.43;;
18623;SDS011;9441;51.420;7.036;2023-02-01T04:40:46;23.57;;;5.03;;
18623;SDS011;9441;51.420;7.036;2023-02-01T04:41:49;24.37;;;4.57;;
18623;SDS011;9441;51.420;7.036;2023-02-01T04:42:50;25.93;;;4.53;;
18623;SDS011;9441;51.420;7.036;2023-02-01T04:43:53;26.73;;;4.47;;
18623;SDS011;9441;51.420;7.036;2023-02-01T04:44:54;22.57;;;4.37;;
18623;SDS011;9441;51.420;7.036;2023-02-01T04:45:56;25.93;;;4.43;;
18623;SDS011;9441;51.420;7.036;2023-02-01T04:46:58;20.90;;;4.40;;
18623;SDS011;9441;51.420;7.036;2023-02-01T04:48:01;17.97;;;4.23;;
18623;SDS011;9441;51.420;7.036;2023-02-01T04:49:02;23.97;;;4.60;;
18623;SDS011;9441;51.420;7.036;2023-02-01T04:50:05;20.07;;;4.63;;
18623;SDS011;9441;51.420;7.036;2023-02-01T04:51:08;24.10;;;4.80;;
18623;SDS011;9441;51.420;7.036;2023-02-01T04:52:11;32.17;;;4.60;;
18623;SDS011;9441;51.420;7.036;2023-02-01T04:53:14;25.23;;;4.30;;
18623;SDS011;9441;51.420;7.036;2023-02-01T04:54:17;25.80;;;4.80;;
18623;SDS011;9441;51.420;7.036;2023-02-01T04:55:19;25.13;;;4.03;;
18623;SDS011;9441;51.420;7.036;2023-02-01T04:56:21;21.60;;;4.43;;
18623;SDS011;9441;51.420;7.036;2023-02-01T04:57:22;22.30;;;4.23;;
18623;SDS011;9441;51.420;7.036;2023-02-01T04:58:25;30.60;;;4.50;;
18623;SDS011;9441;51.420;7.036;2023-02-01T04:59:26;22.40;;;4.80;;
18623;SDS011;9441;51.420;7.036;2023-02-01T05:00:29;29.20;;;4.57;;
18623;SDS011;9441;51.420;7.036;2023-02-01T05:01:30;21.10;;;4.67;;
18623;SDS011;9441;51.420;7.036;2023-02-01T05:02:33;24.30;;;4.20;;
18623;SDS011;9441;51.420;7.036;2023-02-01T05:03:35;28.40;;;4.80;;
18623;SDS011;9441;51.420;7.036;2023-02-01T05:04:37;30.10;;;5.00;;
18623;SDS011;9441;51.420;7.036;2023-02-01T05:05:38;20.23;;;3.83;;
18623;SDS011;9441;51.420;7.036;2023-02-01T05:06:41;28.10;;;4.70;;
18623;SDS011;9441;51.420;7.036;2023-02-01T05:07:42;20.57;;;4.50;;
18623;SDS011;9441;51.420;7.036;2023-02-01T05:08:46;30.63;;;4.83;;
18623;SDS011;9441;51.420;7.036;2023-02-01T05:09:47;19.37;;;4.87;;
18623;SDS011;9441;51.420;7.036;2023-02-01T05:10:50;22.67;;;4.20;;
18623;SDS011;9441;51.420;7.036;2023-02-01T05:11:51;21.63;;;4.30;;
18623;SDS011;9441;51.420;7.036;2023-02-01T05:13:11;21.07;;;4.30;;
18623;SDS011;9441;51.420;7.036;2023-02-01T05:14:30;29.00;;;4.43;;
18623;SDS011;9441;51.420;7.036;2023-02-01T05:15:33;18.60;;;4.17;;
18623;SDS011;9441;51.420;7.036;2023-02-01T05:16:34;19.17;;;4.23;;
18623;SDS011;9441;51.420;7.036;2023-02-01T05:17:36;22.53;;;4.53;;
18623;SDS011;9441;51.420;7.036;2023-02-01T05:18:40;24.07;;;4.73;;
18623;SDS011;9441;51.420;7.036;2023-02-01T05:19:42;18.17;;;4.13;;
18623;SDS011;9441;51.420;7.036;2023-02-01T05:20:43;27.37;;;4.70;;
18623;SDS011;9441;51.420;7.036;2023-02-01T05:21:46;28.70;;;4.20;;
18623;SDS011;9441;51.420;7.036;2023-02-01T05:22:47;19.80;;;3.93;;
18623;SDS011;9441;51.420;7.036;2023-02-01T05:23:51;22.87;;;3.97;;
18623;SDS011;9441;51.420;7.036;2023-02-01T05:25:10;22.53;;;4.10;;
18623;SDS011;9441;51.420;7.036;2023-02-01T05:26:13;24.97;;;4.07;;
18623;SDS011;9441;51.420;7.036;2023-02-01T05:27:15;23.83;;;4.37;;
18623;SDS011;9441;51.420;7.036;2023-02-01T05:28:17;22.03;;;3.80;;
18623;SDS011;9441;51.420;7.036;2023-02-01T05:29:19;23.30;;;4.10;;
18623;SDS011;9441;51.420;7.036;2023-02-01T05:30:21;29.00;;;4.07;;
18623;SDS011;9441;51.420;7.036;2023-02-01T05:31:22;18.27;;;3.70;;
18623;SDS011;9441;51.420;7.036;2023-02-01T05:32:25;29.37;;;4.13;;
18623;SDS011;9441;51.420;7.036;2023-02-01T05:33:26;28.70;;;4.43;;
18623;SDS011;9441;51.420;7.036;2023-02-01T05:34:28;21.13;;;3.87;;
18623;SDS011;9441;51.420;7.036;2023-02-01T05:35:30;25.17;;;4.20;;
18623;SDS011;9441;51.420;7.036;2023-02-01T05:36:32;20.10;;;3.83;;
18623;SDS011;9441;51.420;7.036;2023-02-01T05:37:33;29.27;;;4.30;;
18623;SDS011;9441;51.420;7.036;2023-02-01T05:38:36;28.97;;;4.00;;
18623;SDS011;9441;51.420;7.036;2023-02-01T05:39:39;22.77;;;4.63;;
18623;SDS011;9441;51.420;7.036;2023-02-01T05:40:41;28.37;;;3.83;;
18623;SDS011;9441;51.420;7.036;2023-02-01T05:41:42;24.13;;;4.10;;
18623;SDS011;9441;51.420;7.036;2023-02-01T05:42:45;30.20;;;4.10;;
18623;SDS011;9441;51.420;7.036;2023-02-01T05:43:46;27.17;;;4.17;;
18623;SDS011;9441;51.420;7.036;2023-02-01T05:44:48;27.70;;;3.87;;
18623;SDS011;9441;51.420;7.036;2023-02-01T05:45:51;29.53;;;4.03;;
18623;SDS011;9441;51.420;7.036;2023-02-01T05:46:53;24.50;;;3.93;;
18623;SDS011;9441;51.420;7.036;2023-02-01T05:47:55;30.00;;;4.10;;
18623;SDS011;9441;51.420;7.036;2023-02-01T05:48:57;27.40;;;4.93;;
18623;SDS011;9441;51.420;7.036;2023-02-01T05:49:58;23.90;;;3.80;;
18623;SDS011;9441;51.420;7.036;2023-02-01T05:51:01;23.93;;;3.77;;
18623;SDS011;9441;51.420;7.036;2023-02-01T05:52:02;24.03;;;3.73;;
18623;SDS011;9441;51.420;7.036;2023-02-01T05:53:05;21.57;;;3.77;;
18623;SDS011;9441;51.420;7.036;2023-02-01T05:54:08;26.00;;;3.77;;
18623;SDS011;9441;51.420;7.036;2023-02-01T05:55:12;22.93;;;4.03;;
18623;SDS011;9441;51.420;7.036;2023-02-01T05:56:14;25.80;;;3.60;;
18623;SDS011;9441;51.420;7.036;2023-02-01T05:57:16;21.63;;;3.90;;
18623;SDS011;9441;51.420;7.036;2023-02-01T05:58:17;25.33;;;4.57;;
18623;SDS011;9441;51.420;7.036;2023-02-01T05:59:20;28.77;;;4.27;;
18623;SDS011;9441;51.420;7.036;2023-02-01T06:00:22;27.77;;;4.87;;
18623;SDS011;9441;51.420;7.036;2023-02-01T06:01:24;32.77;;;5.10;;
18623;SDS011;9441;51.420;7.036;2023-02-01T06:02:26;27.83;;;4.27;;
18623;SDS011;9441;51.420;7.036;2023-02-01T06:03:28;22.73;;;3.97;;
18623;SDS011;9441;51.420;7.036;2023-02-01T06:04:30;29.33;;;4.43;;
18623;SDS011;9441;51.420;7.036;2023-02-01T06:05:32;23.10;;;4.27;;
18623;SDS011;9441;51.420;7.036;2023-02-01T06:06:34;22.50;;;4.50;;
18623;SDS011;9441;51.420;7.036;2023-02-01T06:07:39;30.17;;;4.57;;
18623;SDS011;9441;51.420;7.036;2023-02-01T06:08:40;29.20;;;4.67;;
18623;SDS011;9441;51.420;7.036;2023-02-01T06:09:43;24.57;;;4.20;;
18623;SDS011;9441;51.420;7.036;2023-02-01T06:10:46;29.07;;;4.23;;
18623;SDS011;9441;51.420;7.036;2023-02-01T06:11:48;31.17;;;4.53;;
18623;SDS011;9441;51.420;7.036;2023-02-01T06:12:49;28.73;;;4.50;;
18623;SDS011;9441;51.420;7.036;2023-02-01T06:13:53;23.20;;;3.90;;
18623;SDS011;9441;51.420;7.036;2023-02-01T06:14:55;30.27;;;4.80;;
18623;SDS011;9441;51.420;7.036;2023-02-01T06:15:58;18.57;;;4.30;;
18623;SDS011;9441;51.420;7.036;2023-02-01T06:17:00;23.63;;;4.30;;
18623;SDS011;9441;51.420;7.036;2023-02-01T06:18:03;27.63;;;4.50;;
18623;SDS011;9441;51.420;7.036;2023-02-01T06:19:05;31.30;;;5.17;;
18623;SDS011;9441;51.420;7.036;2023-02-01T06:20:07;19.70;;;5.00;;
18623;SDS011;9441;51.420;7.036;2023-02-01T06:21:09;27.87;;;4.70;;
18623;SDS011;9441;51.420;7.036;2023-02-01T06:22:13;22.37;;;4.83;;
18623;SDS011;9441;51.420;7.036;2023-02-01T06:23:15;24.03;;;4.60;;
18623;SDS011;9441;51.420;7.036;2023-02-01T06:24:17;36.43;;;4.67;;
18623;SDS011;9441;51.420;7.036;2023-02-01T06:25:20;32.07;;;5.30;;
18623;SDS011;9441;51.420;7.036;2023-02-01T06:26:24;27.83;;;4.50;;
18623;SDS011;9441;51.420;7.036;2023-02-01T06:27:26;22.53;;;5.00;;
18623;SDS011;9441;51.420;7.036;2023-02-01T06:28:28;28.87;;;5.07;;
18623;SDS011;9441;51.420;7.036;2023-02-01T06:29:31;23.97;;;4.80;;
18623;SDS011;9441;51.420;7.036;2023-02-01T06:30:32;20.43;;;5.20;;
18623;SDS011;9441;51.420;7.036;2023-02-01T06:31:35;27.47;;;5.20;;
18623;SDS011;9441;51.420;7.036;2023-02-01T06:32:36;33.30;;;5.27;;
18623;SDS011;9441;51.420;7.036;2023-02-01T06:33:39;26.20;;;5.57;;